Terminal Aerodrome Forecast
Issued by NWS

Home | Current Version | Previous Version | Text Only | Print | Product List | Glossary On
Versions: 1 2 3 4 5 6 7 8 9 10 11 12 13 14 15 16 17
000
FTUS41 KGYX 252334
TAFAUG
TAF
KAUG 252334Z 2600/2624 22005KT P6SM VCSH SCT080 OVC120
      TEMPO 2600/2603 -SHRA BKN080 OVC100
     FM260300 18005KT P6SM -SHRA SCT050 OVC080
     FM261200 19007KT P6SM BKN070 OVC090
     FM261500 22009KT P6SM SCT080 BKN120
     FM261700 22009KT P6SM SCT100 BKN150=

USA.gov is the U.S. government's official web portal to all federal, state and local government web resources and services.